Terminal Aerodrome Forecast
Issued by NWS Boston, MA

Home | Current Version | Previous Version | Text Only | Print | Product List | Glossary On
Versions: 1 2 3 4 5 6 7 8 9 10 11 12 13 14 15 16 17 18 19 20 21 22 23 24 25 26 27 28 29 30 31 32 33 34 35 36 37 38 39 40 41 42 43 44 45 46
339
FTUS41 KBOX 270309 AAA
TAFPVD
TAF AMD
KPVD 270309Z 2703/2724 34010KT 6SM BR BKN045
     FM270700 34004KT 6SM BR BKN020
     FM271100 33004KT 6SM BR SCT040
     FM271400 02004KT P6SM SCT040
     FM271600 06004KT P6SM BKN035
     FM271900 15004KT P6SM BKN030=

USA.gov is the U.S. government's official web portal to all federal, state and local government web resources and services.